sensor_id;sensor_type;location;lat;lon;timestamp;temperature;humidity
15596;DHT22;7898;48.658;9.068;2023-04-03T00:01:40;3.30;99.90
15596;DHT22;7898;48.658;9.068;2023-04-03T00:04:08;3.20;99.90
15596;DHT22;7898;48.658;9.068;2023-04-03T00:06:34;3.20;99.90
15596;DHT22;7898;48.658;9.068;2023-04-03T00:09:02;3.20;99.90
15596;DHT22;7898;48.658;9.068;2023-04-03T00:11:28;3.20;99.90
15596;DHT22;7898;48.658;9.068;2023-04-03T00:13:55;3.20;99.90
15596;DHT22;7898;48.658;9.068;2023-04-03T00:16:24;3.10;99.90
15596;DHT22;7898;48.658;9.068;2023-04-03T00:18:51;3.10;99.90
15596;DHT22;7898;48.658;9.068;2023-04-03T00:21:18;3.10;99.90
15596;DHT22;7898;48.658;9.068;2023-04-03T00:23:45;3.10;99.90
15596;DHT22;7898;48.658;9.068;2023-04-03T00:26:12;3.00;99.90
15596;DHT22;7898;48.658;9.068;2023-04-03T00:28:38;3.00;99.90
15596;DHT22;7898;48.658;9.068;2023-04-03T00:31:05;3.00;99.90
15596;DHT22;7898;48.658;9.068;2023-04-03T00:33:33;3.00;99.90
15596;DHT22;7898;48.658;9.068;2023-04-03T00:36:06;2.90;99.90
15596;DHT22;7898;48.658;9.068;2023-04-03T00:38:36;2.90;99.90
15596;DHT22;7898;48.658;9.068;2023-04-03T00:41:03;2.90;99.90
15596;DHT22;7898;48.658;9.068;2023-04-03T00:43:30;2.90;99.90
15596;DHT22;7898;48.658;9.068;2023-04-03T00:45:58;2.90;99.90
15596;DHT22;7898;48.658;9.068;2023-04-03T00:48:28;2.80;99.90
15596;DHT22;7898;48.658;9.068;2023-04-03T00:50:57;2.80;99.90
15596;DHT22;7898;48.658;9.068;2023-04-03T00:53:27;2.90;99.90
15596;DHT22;7898;48.658;9.068;2023-04-03T00:55:56;2.80;99.90
15596;DHT22;7898;48.658;9.068;2023-04-03T00:58:31;2.80;99.90
15596;DHT22;7898;48.658;9.068;2023-04-03T01:01:03;2.80;99.90
15596;DHT22;7898;48.658;9.068;2023-04-03T01:03:31;2.80;99.90
15596;DHT22;7898;48.658;9.068;2023-04-03T01:06:00;2.80;99.90
15596;DHT22;7898;48.658;9.068;2023-04-03T01:08:27;2.70;99.90
15596;DHT22;7898;48.658;9.068;2023-04-03T01:10:54;2.80;99.90
15596;DHT22;7898;48.658;9.068;2023-04-03T01:13:24;2.80;99.90
15596;DHT22;7898;48.658;9.068;2023-04-03T01:15:51;2.70;99.90
15596;DHT22;7898;48.658;9.068;2023-04-03T01:18:18;2.80;99.90
15596;DHT22;7898;48.658;9.068;2023-04-03T01:21:10;2.70;99.90
15596;DHT22;7898;48.658;9.068;2023-04-03T01:23:58;2.80;99.90
15596;DHT22;7898;48.658;9.068;2023-04-03T01:26:27;2.70;99.90
15596;DHT22;7898;48.658;9.068;2023-04-03T01:28:55;2.70;99.90
15596;DHT22;7898;48.658;9.068;2023-04-03T01:31:25;2.80;99.90
15596;DHT22;7898;48.658;9.068;2023-04-03T01:33:54;2.70;99.90
15596;DHT22;7898;48.658;9.068;2023-04-03T01:36:24;2.60;99.90
15596;DHT22;7898;48.658;9.068;2023-04-03T01:38:54;3.00;99.90
15596;DHT22;7898;48.658;9.068;2023-04-03T01:41:22;2.60;99.90
15596;DHT22;7898;48.658;9.068;2023-04-03T01:43:49;2.60;99.90
15596;DHT22;7898;48.658;9.068;2023-04-03T01:46:16;2.60;99.90
15596;DHT22;7898;48.658;9.068;2023-04-03T01:48:44;2.50;99.90
15596;DHT22;7898;48.658;9.068;2023-04-03T01:51:13;2.50;99.90
15596;DHT22;7898;48.658;9.068;2023-04-03T01:53:40;2.50;99.90
15596;DHT22;7898;48.658;9.068;2023-04-03T01:56:07;2.50;99.90
15596;DHT22;7898;48.658;9.068;2023-04-03T01:58:34;2.50;99.90
15596;DHT22;7898;48.658;9.068;2023-04-03T02:01:01;2.40;99.90
15596;DHT22;7898;48.658;9.068;2023-04-03T02:03:28;2.40;99.90
15596;DHT22;7898;48.658;9.068;2023-04-03T02:05:55;2.40;99.90
15596;DHT22;7898;48.658;9.068;2023-04-03T02:08:23;2.40;99.90
15596;DHT22;7898;48.658;9.068;2023-04-03T02:10:51;2.40;99.90
15596;DHT22;7898;48.658;9.068;2023-04-03T02:13:18;2.40;99.90
15596;DHT22;7898;48.658;9.068;2023-04-03T02:15:45;2.40;99.90
15596;DHT22;7898;48.658;9.068;2023-04-03T02:18:13;2.40;99.90
15596;DHT22;7898;48.658;9.068;2023-04-03T02:20:40;2.40;99.90
15596;DHT22;7898;48.658;9.068;2023-04-03T02:23:07;2.50;99.90
15596;DHT22;7898;48.658;9.068;2023-04-03T02:25:35;2.40;99.90
15596;DHT22;7898;48.658;9.068;2023-04-03T02:28:02;2.40;99.90
15596;DHT22;7898;48.658;9.068;2023-04-03T02:30:29;2.40;99.90
15596;DHT22;7898;48.658;9.068;2023-04-03T02:32:56;2.40;99.90
15596;DHT22;7898;48.658;9.068;2023-04-03T02:35:23;2.40;99.90
15596;DHT22;7898;48.658;9.068;2023-04-03T02:37:49;2.50;99.90
15596;DHT22;7898;48.658;9.068;2023-04-03T02:40:17;2.60;99.90
15596;DHT22;7898;48.658;9.068;2023-04-03T02:42:46;2.40;99.90
15596;DHT22;7898;48.658;9.068;2023-04-03T02:45:12;2.40;99.90
15596;DHT22;7898;48.658;9.068;2023-04-03T02:47:39;2.50;99.90
15596;DHT22;7898;48.658;9.068;2023-04-03T02:50:07;2.50;99.90
15596;DHT22;7898;48.658;9.068;2023-04-03T02:52:34;2.50;99.90
15596;DHT22;7898;48.658;9.068;2023-04-03T02:55:01;2.50;99.90
15596;DHT22;7898;48.658;9.068;2023-04-03T02:57:28;2.50;99.90
15596;DHT22;7898;48.658;9.068;2023-04-03T02:59:56;2.50;99.90
15596;DHT22;7898;48.658;9.068;2023-04-03T03:02:23;2.50;99.90
15596;DHT22;7898;48.658;9.068;2023-04-03T03:04:50;2.50;99.90
15596;DHT22;7898;48.658;9.068;2023-04-03T03:07:17;2.50;99.90
15596;DHT22;7898;48.658;9.068;2023-04-03T03:09:43;2.50;99.90
15596;DHT22;7898;48.658;9.068;2023-04-03T03:12:10;2.50;99.90
15596;DHT22;7898;48.658;9.068;2023-04-03T03:14:37;2.50;99.90
15596;DHT22;7898;48.658;9.068;2023-04-03T03:17:05;2.50;99.90
15596;DHT22;7898;48.658;9.068;2023-04-03T03:19:32;2.50;99.90
15596;DHT22;7898;48.658;9.068;2023-04-03T03:21:59;2.50;99.90
15596;DHT22;7898;48.658;9.068;2023-04-03T03:24:27;2.50;99.90
15596;DHT22;7898;48.658;9.068;2023-04-03T03:26:53;2.50;99.90
15596;DHT22;7898;48.658;9.068;2023-04-03T03:29:20;2.50;99.90
15596;DHT22;7898;48.658;9.068;2023-04-03T03:31:47;2.50;99.90
15596;DHT22;7898;48.658;9.068;2023-04-03T03:34:16;2.50;99.90
15596;DHT22;7898;48.658;9.068;2023-04-03T03:36:43;2.50;99.90
15596;DHT22;7898;48.658;9.068;2023-04-03T03:39:10;2.50;99.90
15596;DHT22;7898;48.658;9.068;2023-04-03T03:41:37;2.50;99.90
15596;DHT22;7898;48.658;9.068;2023-04-03T03:44:04;2.50;99.90
15596;DHT22;7898;48.658;9.068;2023-04-03T03:46:31;2.40;99.90
15596;DHT22;7898;48.658;9.068;2023-04-03T03:48:58;2.40;99.90
15596;DHT22;7898;48.658;9.068;2023-04-03T03:51:26;2.40;99.90
15596;DHT22;7898;48.658;9.068;2023-04-03T03:53:53;2.40;99.90
15596;DHT22;7898;48.658;9.068;2023-04-03T03:56:20;2.40;99.90
15596;DHT22;7898;48.658;9.068;2023-04-03T03:58:49;2.40;99.90
15596;DHT22;7898;48.658;9.068;2023-04-03T04:01:16;2.40;99.90
15596;DHT22;7898;48.658;9.068;2023-04-03T04:03:43;2.40;99.90
15596;DHT22;7898;48.658;9.068;2023-04-03T04:06:10;2.50;99.90
15596;DHT22;7898;48.658;9.068;2023-04-03T04:08:38;2.40;99.90
15596;DHT22;7898;48.658;9.068;2023-04-03T04:11:06;2.40;99.90
15596;DHT22;7898;48.658;9.068;2023-04-03T04:13:33;2.40;99.90
15596;DHT22;7898;48.658;9.068;2023-04-03T04:16:00;2.40;99.90
15596;DHT22;7898;48.658;9.068;2023-04-03T04:18:27;2.40;99.90
15596;DHT22;7898;48.658;9.068;2023-04-03T04:20:54;2.40;99.90
15596;DHT22;7898;48.658;9.068;2023-04-03T04:23:21;2.40;99.90
15596;DHT22;7898;48.658;9.068;2023-04-03T04:25:49;2.40;99.90
15596;DHT22;7898;48.658;9.068;2023-04-03T04:28:16;2.40;99.90
15596;DHT22;7898;48.658;9.068;2023-04-03T04:30:43;2.40;99.90
15596;DHT22;7898;48.658;9.068;2023-04-03T04:33:11;2.40;99.90
15596;DHT22;7898;48.658;9.068;2023-04-03T04:35:40;2.40;99.90
15596;DHT22;7898;48.658;9.068;2023-04-03T04:38:08;2.40;99.90
15596;DHT22;7898;48.658;9.068;2023-04-03T04:40:35;2.40;99.90
15596;DHT22;7898;48.658;9.068;2023-04-03T04:43:04;2.40;99.90
15596;DHT22;7898;48.658;9.068;2023-04-03T04:45:31;2.40;99.90
15596;DHT22;7898;48.658;9.068;2023-04-03T04:47:58;2.40;99.90
15596;DHT22;7898;48.658;9.068;2023-04-03T04:50:25;2.40;99.90
15596;DHT22;7898;48.658;9.068;2023-04-03T04:52:52;2.40;99.90
15596;DHT22;7898;48.658;9.068;2023-04-03T04:55:19;2.40;99.90
15596;DHT22;7898;48.658;9.068;2023-04-03T04:57:46;2.40;99.90
15596;DHT22;7898;48.658;9.068;2023-04-03T05:00:15;2.50;99.90
15596;DHT22;7898;48.658;9.068;2023-04-03T05:02:43;2.40;99.90
15596;DHT22;7898;48.658;9.068;2023-04-03T05:05:10;2.50;99.90
15596;DHT22;7898;48.658;9.068;2023-04-03T05:07:37;2.50;99.90
15596;DHT22;7898;48.658;9.068;2023-04-03T05:10:05;2.50;99.90
15596;DHT22;7898;48.658;9.068;2023-04-03T05:12:32;2.50;99.90
15596;DHT22;7898;48.658;9.068;2023-04-03T05:14:59;2.50;99.90
15596;DHT22;7898;48.658;9.068;2023-04-03T05:17:27;2.50;99.90
15596;DHT22;7898;48.658;9.068;2023-04-03T05:19:54;2.60;99.90
15596;DHT22;7898;48.658;9.068;2023-04-03T05:22:21;2.60;99.90
15596;DHT22;7898;48.658;9.068;2023-04-03T05:24:48;2.60;99.90
15596;DHT22;7898;48.658;9.068;2023-04-03T05:27:15;2.60;99.90
15596;DHT22;7898;48.658;9.068;2023-04-03T05:29:42;2.70;99.90
15596;DHT22;7898;48.658;9.068;2023-04-03T05:32:09;2.70;99.90
15596;DHT22;7898;48.658;9.068;2023-04-03T05:34:37;2.70;99.90
15596;DHT22;7898;48.658;9.068;2023-04-03T05:37:04;2.70;99.90
15596;DHT22;7898;48.658;9.068;2023-04-03T05:39:31;2.70;99.90
15596;DHT22;7898;48.658;9.068;2023-04-03T05:41:59;2.70;99.90
15596;DHT22;7898;48.658;9.068;2023-04-03T05:44:26;2.80;99.90
15596;DHT22;7898;48.658;9.068;2023-04-03T05:46:53;3.10;99.90
15596;DHT22;7898;48.658;9.068;2023-04-03T05:49:20;3.00;99.90
15596;DHT22;7898;48.658;9.068;2023-04-03T05:51:48;3.10;99.90
15596;DHT22;7898;48.658;9.068;2023-04-03T05:54:18;3.10;99.90
15596;DHT22;7898;48.658;9.068;2023-04-03T05:56:48;3.20;99.90
15596;DHT22;7898;48.658;9.068;2023-04-03T05:59:15;3.20;99.90
15596;DHT22;7898;48.658;9.068;2023-04-03T06:01:42;3.10;99.90
15596;DHT22;7898;48.658;9.068;2023-04-03T06:04:09;3.10;99.90
15596;DHT22;7898;48.658;9.068;2023-04-03T06:06:44;3.10;99.90
15596;DHT22;7898;48.658;9.068;2023-04-03T06:09:13;3.00;99.90
15596;DHT22;7898;48.658;9.068;2023-04-03T06:11:40;3.10;99.90
15596;DHT22;7898;48.658;9.068;2023-04-03T06:14:07;3.10;99.90
15596;DHT22;7898;48.658;9.068;2023-04-03T06:16:34;3.20;99.90
15596;DHT22;7898;48.658;9.068;2023-04-03T06:19:01;3.20;99.90
15596;DHT22;7898;48.658;9.068;2023-04-03T06:21:29;3.30;99.90
15596;DHT22;7898;48.658;9.068;2023-04-03T06:23:56;3.30;99.90
15596;DHT22;7898;48.658;9.068;2023-04-03T06:26:24;3.30;99.90
15596;DHT22;7898;48.658;9.068;2023-04-03T06:28:51;3.20;99.90
15596;DHT22;7898;48.658;9.068;2023-04-03T06:31:18;3.20;99.90
15596;DHT22;7898;48.658;9.068;2023-04-03T06:33:45;3.30;99.90
15596;DHT22;7898;48.658;9.068;2023-04-03T06:36:12;3.30;99.90
15596;DHT22;7898;48.658;9.068;2023-04-03T06:38:39;3.30;99.90
15596;DHT22;7898;48.658;9.068;2023-04-03T06:41:06;3.30;99.90
15596;DHT22;7898;48.658;9.068;2023-04-03T06:43:34;3.40;99.90
15596;DHT22;7898;48.658;9.068;2023-04-03T06:46:01;3.40;99.90
15596;DHT22;7898;48.658;9.068;2023-04-03T06:48:28;3.40;99.90
15596;DHT22;7898;48.658;9.068;2023-04-03T06:50:55;3.50;99.90
15596;DHT22;7898;48.658;9.068;2023-04-03T06:53:22;3.50;99.90
15596;DHT22;7898;48.658;9.068;2023-04-03T06:55:49;3.50;99.90
15596;DHT22;7898;48.658;9.068;2023-04-03T06:58:16;3.60;99.90
15596;DHT22;7898;48.658;9.068;2023-04-03T07:00:45;3.70;99.90
15596;DHT22;7898;48.658;9.068;2023-04-03T07:03:12;3.90;99.90
15596;DHT22;7898;48.658;9.068;2023-04-03T07:05:39;3.90;99.90
15596;DHT22;7898;48.658;9.068;2023-04-03T07:08:08;3.90;99.90
15596;DHT22;7898;48.658;9.068;2023-04-03T07:10:35;3.90;99.90
15596;DHT22;7898;48.658;9.068;2023-04-03T07:13:01;3.90;99.90
15596;DHT22;7898;48.658;9.068;2023-04-03T07:15:28;4.00;99.90
15596;DHT22;7898;48.658;9.068;2023-04-03T07:17:57;3.90;99.90
15596;DHT22;7898;48.658;9.068;2023-04-03T07:20:24;3.90;99.90
15596;DHT22;7898;48.658;9.068;2023-04-03T07:22:51;4.00;99.90
15596;DHT22;7898;48.658;9.068;2023-04-03T07:25:18;4.10;99.90
15596;DHT22;7898;48.658;9.068;2023-04-03T07:27:45;4.20;99.90
15596;DHT22;7898;48.658;9.068;2023-04-03T07:30:13;4.20;99.90
15596;DHT22;7898;48.658;9.068;2023-04-03T07:32:40;4.30;99.90
15596;DHT22;7898;48.658;9.068;2023-04-03T07:35:09;4.50;99.90
15596;DHT22;7898;48.658;9.068;2023-04-03T07:37:36;4.90;99.90
15596;DHT22;7898;48.658;9.068;2023-04-03T07:40:03;5.10;99.90
15596;DHT22;7898;48.658;9.068;2023-04-03T07:42:30;5.10;99.90
15596;DHT22;7898;48.658;9.068;2023-04-03T07:44:57;5.00;99.90
15596;DHT22;7898;48.658;9.068;2023-04-03T07:47:24;4.80;99.90
15596;DHT22;7898;48.658;9.068;2023-04-03T07:49:51;4.70;99.90
15596;DHT22;7898;48.658;9.068;2023-04-03T07:52:19;4.80;99.90
15596;DHT22;7898;48.658;9.068;2023-04-03T07:54:46;4.90;99.90
15596;DHT22;7898;48.658;9.068;2023-04-03T07:57:13;4.90;99.90
15596;DHT22;7898;48.658;9.068;2023-04-03T07:59:40;4.90;99.90
15596;DHT22;7898;48.658;9.068;2023-04-03T08:02:09;4.80;99.90
15596;DHT22;7898;48.658;9.068;2023-04-03T08:04:36;4.90;99.90
15596;DHT22;7898;48.658;9.068;2023-04-03T08:07:03;4.80;99.90
15596;DHT22;7898;48.658;9.068;2023-04-03T08:09:31;4.90;99.90
15596;DHT22;7898;48.658;9.068;2023-04-03T08:11:58;5.10;99.90
15596;DHT22;7898;48.658;9.068;2023-04-03T08:14:25;5.30;99.90
15596;DHT22;7898;48.658;9.068;2023-04-03T08:16:52;5.20;99.90
15596;DHT22;7898;48.658;9.068;2023-04-03T08:19:19;5.30;99.90
15596;DHT22;7898;48.658;9.068;2023-04-03T08:21:46;5.30;99.90
15596;DHT22;7898;48.658;9.068;2023-04-03T08:24:13;5.30;99.90
15596;DHT22;7898;48.658;9.068;2023-04-03T08:26:41;5.40;99.90
15596;DHT22;7898;48.658;9.068;2023-04-03T08:29:08;5.50;99.90
15596;DHT22;7898;48.658;9.068;2023-04-03T08:31:35;5.50;99.90
15596;DHT22;7898;48.658;9.068;2023-04-03T08:34:02;5.50;99.90
15596;DHT22;7898;48.658;9.068;2023-04-03T08:36:29;5.60;99.90
15596;DHT22;7898;48.658;9.068;2023-04-03T08:38:56;5.70;99.90
15596;DHT22;7898;48.658;9.068;2023-04-03T08:41:29;5.70;99.90
15596;DHT22;7898;48.658;9.068;2023-04-03T08:44:03;5.60;99.90
15596;DHT22;7898;48.658;9.068;2023-04-03T08:46:43;5.80;99.90
15596;DHT22;7898;48.658;9.068;2023-04-03T08:49:18;5.80;99.90
15596;DHT22;7898;48.658;9.068;2023-04-03T08:51:49;5.60;99.90
15596;DHT22;7898;48.658;9.068;2023-04-03T08:54:24;5.50;99.90
15596;DHT22;7898;48.658;9.068;2023-04-03T08:56:55;5.50;99.90
15596;DHT22;7898;48.658;9.068;2023-04-03T08:59:28;5.50;99.90
15596;DHT22;7898;48.658;9.068;2023-04-03T09:01:58;5.50;99.90
15596;DHT22;7898;48.658;9.068;2023-04-03T09:04:28;5.60;99.90
15596;DHT22;7898;48.658;9.068;2023-04-03T09:07:03;5.70;99.90
15596;DHT22;7898;48.658;9.068;2023-04-03T09:09:35;5.90;99.90
15596;DHT22;7898;48.658;9.068;2023-04-03T09:12:12;5.80;99.90
15596;DHT22;7898;48.658;9.068;2023-04-03T09:14:46;5.70;99.90
15596;DHT22;7898;48.658;9.068;2023-04-03T09:17:33;5.50;99.90
15596;DHT22;7898;48.658;9.068;2023-04-03T09:20:13;5.90;99.90
15596;DHT22;7898;48.658;9.068;2023-04-03T09:22:43;6.10;99.90
15596;DHT22;7898;48.658;9.068;2023-04-03T09:25:13;6.20;99.90
15596;DHT22;7898;48.658;9.068;2023-04-03T09:27:43;6.20;99.90
15596;DHT22;7898;48.658;9.068;2023-04-03T09:30:15;6.00;99.90
15596;DHT22;7898;48.658;9.068;2023-04-03T09:32:45;5.90;99.90
15596;DHT22;7898;48.658;9.068;2023-04-03T09:35:24;5.70;99.90
15596;DHT22;7898;48.658;9.068;2023-04-03T09:37:52;5.60;99.90
15596;DHT22;7898;48.658;9.068;2023-04-03T09:40:30;5.60;99.90
15596;DHT22;7898;48.658;9.068;2023-04-03T09:43:01;5.60;99.90
15596;DHT22;7898;48.658;9.068;2023-04-03T09:45:31;5.60;99.90
15596;DHT22;7898;48.658;9.068;2023-04-03T09:48:06;5.60;99.90
15596;DHT22;7898;48.658;9.068;2023-04-03T09:50:35;5.50;99.90
15596;DHT22;7898;48.658;9.068;2023-04-03T09:53:05;5.50;99.90
15596;DHT22;7898;48.658;9.068;2023-04-03T09:55:42;5.40;99.90
15596;DHT22;7898;48.658;9.068;2023-04-03T09:58:24;5.50;99.90
15596;DHT22;7898;48.658;9.068;2023-04-03T10:00:56;5.50;99.90
15596;DHT22;7898;48.658;9.068;2023-04-03T10:03:27;5.60;99.90
15596;DHT22;7898;48.658;9.068;2023-04-03T10:05:54;5.60;99.90
15596;DHT22;7898;48.658;9.068;2023-04-03T10:08:26;5.50;99.90
15596;DHT22;7898;48.658;9.068;2023-04-03T10:11:12;5.40;99.90
15596;DHT22;7898;48.658;9.068;2023-04-03T10:14:01;5.20;99.90
15596;DHT22;7898;48.658;9.068;2023-04-03T10:16:41;5.40;99.90
15596;DHT22;7898;48.658;9.068;2023-04-03T10:19:23;5.60;99.90
15596;DHT22;7898;48.658;9.068;2023-04-03T10:21:57;5.70;99.90
15596;DHT22;7898;48.658;9.068;2023-04-03T10:24:31;6.10;99.90
15596;DHT22;7898;48.658;9.068;2023-04-03T10:27:06;5.90;99.90
15596;DHT22;7898;48.658;9.068;2023-04-03T10:29:42;6.10;99.90
15596;DHT22;7898;48.658;9.068;2023-04-03T10:32:32;6.10;99.90
15596;DHT22;7898;48.658;9.068;2023-04-03T10:35:10;6.20;99.90
15596;DHT22;7898;48.658;9.068;2023-04-03T10:37:51;6.20;99.90
15596;DHT22;7898;48.658;9.068;2023-04-03T10:40:29;6.30;99.90
15596;DHT22;7898;48.658;9.068;2023-04-03T10:43:04;6.40;99.90
15596;DHT22;7898;48.658;9.068;2023-04-03T10:45:56;6.30;99.90
15596;DHT22;7898;48.658;9.068;2023-04-03T10:48:34;6.00;99.90
15596;DHT22;7898;48.658;9.068;2023-04-03T10:51:12;6.00;99.90
15596;DHT22;7898;48.658;9.068;2023-04-03T10:53:47;6.10;99.90
15596;DHT22;7898;48.658;9.068;2023-04-03T10:56:21;6.20;99.90
15596;DHT22;7898;48.658;9.068;2023-04-03T10:58:56;6.10;99.90
15596;DHT22;7898;48.658;9.068;2023-04-03T11:01:29;6.10;99.90
15596;DHT22;7898;48.658;9.068;2023-04-03T11:04:00;6.20;99.90
15596;DHT22;7898;48.658;9.068;2023-04-03T11:06:39;6.40;99.90
15596;DHT22;7898;48.658;9.068;2023-04-03T11:09:15;6.60;99.90
15596;DHT22;7898;48.658;9.068;2023-04-03T11:11:43;6.60;99.90
15596;DHT22;7898;48.658;9.068;2023-04-03T11:14:17;6.60;99.90
15596;DHT22;7898;48.658;9.068;2023-04-03T11:16:51;6.60;99.90
15596;DHT22;7898;48.658;9.068;2023-04-03T11:19:24;6.70;99.90
15596;DHT22;7898;48.658;9.068;2023-04-03T11:21:58;6.60;99.90
15596;DHT22;7898;48.658;9.068;2023-04-03T11:24:31;6.40;99.90
15596;DHT22;7898;48.658;9.068;2023-04-03T11:27:00;6.20;99.90
15596;DHT22;7898;48.658;9.068;2023-04-03T11:29:34;6.00;99.90
15596;DHT22;7898;48.658;9.068;2023-04-03T11:32:27;5.90;99.90
15596;DHT22;7898;48.658;9.068;2023-04-03T11:35:00;5.80;99.90
15596;DHT22;7898;48.658;9.068;2023-04-03T11:37:31;5.70;99.90
15596;DHT22;7898;48.658;9.068;2023-04-03T11:40:03;5.70;99.90
15596;DHT22;7898;48.658;9.068;2023-04-03T11:42:34;5.60;99.90
15596;DHT22;7898;48.658;9.068;2023-04-03T11:45:34;5.70;99.90
15596;DHT22;7898;48.658;9.068;2023-04-03T11:48:04;5.70;99.90
15596;DHT22;7898;48.658;9.068;2023-04-03T11:50:46;5.80;99.90
15596;DHT22;7898;48.658;9.068;2023-04-03T11:53:34;5.80;99.90
15596;DHT22;7898;48.658;9.068;2023-04-03T11:56:04;5.80;99.90
15596;DHT22;7898;48.658;9.068;2023-04-03T11:58:32;5.80;99.90
15596;DHT22;7898;48.658;9.068;2023-04-03T12:01:10;5.70;99.90
15596;DHT22;7898;48.658;9.068;2023-04-03T12:06:51;5.70;99.90
15596;DHT22;7898;48.658;9.068;2023-04-03T12:12:36;6.00;99.90
15596;DHT22;7898;48.658;9.068;2023-04-03T12:18:38;6.30;99.90
15596;DHT22;7898;48.658;9.068;2023-04-03T12:21:07;6.30;99.90
15596;DHT22;7898;48.658;9.068;2023-04-03T12:23:36;6.40;99.90
15596;DHT22;7898;48.658;9.068;2023-04-03T12:26:19;6.40;99.90
15596;DHT22;7898;48.658;9.068;2023-04-03T12:28:48;6.30;99.90
15596;DHT22;7898;48.658;9.068;2023-04-03T12:31:19;6.30;99.90
15596;DHT22;7898;48.658;9.068;2023-04-03T12:34:04;6.10;99.90
15596;DHT22;7898;48.658;9.068;2023-04-03T12:36:42;6.00;99.90
15596;DHT22;7898;48.658;9.068;2023-04-03T12:42:18;5.90;99.90
15596;DHT22;7898;48.658;9.068;2023-04-03T12:44:57;5.80;99.90
15596;DHT22;7898;48.658;9.068;2023-04-03T12:47:28;5.80;99.90
15596;DHT22;7898;48.658;9.068;2023-04-03T12:49:59;5.70;99.90
15596;DHT22;7898;48.658;9.068;2023-04-03T12:52:33;5.80;99.90
15596;DHT22;7898;48.658;9.068;2023-04-03T12:55:03;5.90;99.90
15596;DHT22;7898;48.658;9.068;2023-04-03T12:57:35;6.00;99.90
15596;DHT22;7898;48.658;9.068;2023-04-03T13:03:06;6.50;99.90
15596;DHT22;7898;48.658;9.068;2023-04-03T13:05:46;6.70;99.90
15596;DHT22;7898;48.658;9.068;2023-04-03T13:08:14;7.00;99.90
15596;DHT22;7898;48.658;9.068;2023-04-03T13:10:49;7.20;99.90
15596;DHT22;7898;48.658;9.068;2023-04-03T13:13:17;7.10;99.90
15596;DHT22;7898;48.658;9.068;2023-04-03T13:15:47;7.10;99.90
15596;DHT22;7898;48.658;9.068;2023-04-03T13:18:23;6.90;99.90
15596;DHT22;7898;48.658;9.068;2023-04-03T13:20:51;6.70;99.90
15596;DHT22;7898;48.658;9.068;2023-04-03T13:23:20;6.70;99.90
15596;DHT22;7898;48.658;9.068;2023-04-03T13:25:50;6.50;99.90
15596;DHT22;7898;48.658;9.068;2023-04-03T13:28:20;6.40;99.90
15596;DHT22;7898;48.658;9.068;2023-04-03T13:30:57;6.50;99.90
15596;DHT22;7898;48.658;9.068;2023-04-03T13:33:27;6.70;99.90
15596;DHT22;7898;48.658;9.068;2023-04-03T13:35:56;6.80;99.90
15596;DHT22;7898;48.658;9.068;2023-04-03T13:38:25;7.00;99.90
15596;DHT22;7898;48.658;9.068;2023-04-03T13:40:56;7.00;99.90
15596;DHT22;7898;48.658;9.068;2023-04-03T13:43:26;7.00;99.90
15596;DHT22;7898;48.658;9.068;2023-04-03T13:45:56;7.20;99.90
15596;DHT22;7898;48.658;9.068;2023-04-03T13:48:24;7.20;99.90
15596;DHT22;7898;48.658;9.068;2023-04-03T13:50:54;7.10;99.90
15596;DHT22;7898;48.658;9.068;2023-04-03T13:53:22;7.20;99.90
15596;DHT22;7898;48.658;9.068;2023-04-03T13:55:57;7.20;99.90
15596;DHT22;7898;48.658;9.068;2023-04-03T13:58:26;6.90;99.90
15596;DHT22;7898;48.658;9.068;2023-04-03T14:00:55;6.70;99.90
15596;DHT22;7898;48.658;9.068;2023-04-03T14:03:28;6.60;99.90
15596;DHT22;7898;48.658;9.068;2023-04-03T14:05:55;6.40;99.90
15596;DHT22;7898;48.658;9.068;2023-04-03T14:08:22;6.40;99.90
15596;DHT22;7898;48.658;9.068;2023-04-03T14:10:50;6.30;99.90
15596;DHT22;7898;48.658;9.068;2023-04-03T14:13:20;6.30;99.90
15596;DHT22;7898;48.658;9.068;2023-04-03T14:15:48;6.30;99.90
15596;DHT22;7898;48.658;9.068;2023-04-03T14:18:18;6.40;99.90
15596;DHT22;7898;48.658;9.068;2023-04-03T14:20:46;6.30;99.90
15596;DHT22;7898;48.658;9.068;2023-04-03T14:23:13;6.40;99.90
15596;DHT22;7898;48.658;9.068;2023-04-03T14:25:41;6.50;99.90
15596;DHT22;7898;48.658;9.068;2023-04-03T14:28:15;6.70;99.90
15596;DHT22;7898;48.658;9.068;2023-04-03T14:30:45;6.80;99.90
15596;DHT22;7898;48.658;9.068;2023-04-03T14:33:14;7.00;99.90
15596;DHT22;7898;48.658;9.068;2023-04-03T14:35:42;7.20;99.90
15596;DHT22;7898;48.658;9.068;2023-04-03T14:38:23;7.30;99.90
15596;DHT22;7898;48.658;9.068;2023-04-03T14:40:50;7.70;99.90
15596;DHT22;7898;48.658;9.068;2023-04-03T14:43:17;7.80;99.90
15596;DHT22;7898;48.658;9.068;2023-04-03T14:45:47;7.70;99.90
15596;DHT22;7898;48.658;9.068;2023-04-03T14:48:18;7.60;99.90
15596;DHT22;7898;48.658;9.068;2023-04-03T14:50:46;7.40;99.90
15596;DHT22;7898;48.658;9.068;2023-04-03T14:53:14;7.30;99.90
15596;DHT22;7898;48.658;9.068;2023-04-03T14:55:43;7.30;99.90
15596;DHT22;7898;48.658;9.068;2023-04-03T14:58:13;7.10;99.90
15596;DHT22;7898;48.658;9.068;2023-04-03T15:00:40;7.00;99.90
15596;DHT22;7898;48.658;9.068;2023-04-03T15:03:14;6.90;99.90
15596;DHT22;7898;48.658;9.068;2023-04-03T15:05:42;6.70;99.90
15596;DHT22;7898;48.658;9.068;2023-04-03T15:08:18;6.70;99.90
15596;DHT22;7898;48.658;9.068;2023-04-03T15:10:46;7.10;99.90
15596;DHT22;7898;48.658;9.068;2023-04-03T15:13:14;7.30;99.90
15596;DHT22;7898;48.658;9.068;2023-04-03T15:15:41;7.50;99.90
15596;DHT22;7898;48.658;9.068;2023-04-03T15:18:15;7.70;99.90
15596;DHT22;7898;48.658;9.068;2023-04-03T15:20:44;8.40;99.90
15596;DHT22;7898;48.658;9.068;2023-04-03T15:23:13;9.20;99.90
15596;DHT22;7898;48.658;9.068;2023-04-03T15:25:41;9.30;99.90
15596;DHT22;7898;48.658;9.068;2023-04-03T15:28:10;9.10;99.90
15596;DHT22;7898;48.658;9.068;2023-04-03T15:30:41;9.10;99.90
15596;DHT22;7898;48.658;9.068;2023-04-03T15:33:08;8.30;99.90
15596;DHT22;7898;48.658;9.068;2023-04-03T15:35:36;7.70;99.90
15596;DHT22;7898;48.658;9.068;2023-04-03T15:38:03;7.20;99.90
15596;DHT22;7898;48.658;9.068;2023-04-03T15:40:30;6.90;99.90
15596;DHT22;7898;48.658;9.068;2023-04-03T15:42:57;6.70;99.90
15596;DHT22;7898;48.658;9.068;2023-04-03T15:45:24;6.60;99.90
15596;DHT22;7898;48.658;9.068;2023-04-03T15:47:52;6.60;99.90
15596;DHT22;7898;48.658;9.068;2023-04-03T15:50:20;6.70;99.90
15596;DHT22;7898;48.658;9.068;2023-04-03T15:52:49;6.80;99.90
15596;DHT22;7898;48.658;9.068;2023-04-03T15:55:20;7.00;99.90
15596;DHT22;7898;48.658;9.068;2023-04-03T15:57:46;7.00;99.90
15596;DHT22;7898;48.658;9.068;2023-04-03T16:00:14;6.80;99.90
15596;DHT22;7898;48.658;9.068;2023-04-03T16:02:41;6.80;99.90
15596;DHT22;7898;48.658;9.068;2023-04-03T16:05:09;6.60;99.90
15596;DHT22;7898;48.658;9.068;2023-04-03T16:07:37;6.60;99.90
15596;DHT22;7898;48.658;9.068;2023-04-03T16:10:07;6.50;99.90
15596;DHT22;7898;48.658;9.068;2023-04-03T16:12:35;6.40;99.90
15596;DHT22;7898;48.658;9.068;2023-04-03T16:15:02;6.40;99.90
15596;DHT22;7898;48.658;9.068;2023-04-03T16:17:29;6.30;99.90
15596;DHT22;7898;48.658;9.068;2023-04-03T16:19:57;6.10;99.90
15596;DHT22;7898;48.658;9.068;2023-04-03T16:22:26;6.00;99.90
15596;DHT22;7898;48.658;9.068;2023-04-03T16:24:54;6.00;99.90
15596;DHT22;7898;48.658;9.068;2023-04-03T16:27:23;6.10;99.90
15596;DHT22;7898;48.658;9.068;2023-04-03T16:29:53;6.30;99.90
15596;DHT22;7898;48.658;9.068;2023-04-03T16:32:20;6.80;99.90
15596;DHT22;7898;48.658;9.068;2023-04-03T16:34:47;6.70;99.90